Time;durP1;ratioP1;P1;durP2;ratioP2;P2;SDS_P1;SDS_P2;PMS_P1;PMS_P2;Temp;Humidity;BMP_temperature;BMP_pressure;BME280_temperature;BME280_humidity;BME280_pressure;Samples;Min_cycle;Max_cycle;Signal;HPM_P1;HPM_P2
2022/03/19 00:01:16;;;;;;;16.08;11.40;;;;;;;;;;5034473;28;20433;-63
2022/03/19 00:03:42;;;;;;;16.70;10.80;;;;;;;;;;5034688;28;20128;-63
2022/03/19 00:06:08;;;;;;;19.02;11.52;;;;;;;;;;5034545;28;20029;-61
2022/03/19 00:08:34;;;;;;;16.70;11.18;;;;;;;;;;5034738;28;20026;-62
2022/03/19 00:11:01;;;;;;;17.52;11.35;;;;;;;;;;5034792;28;20036;-61
2022/03/19 00:13:28;;;;;;;16.70;10.55;;;;;;;;;;5034601;28;20052;-62
2022/03/19 00:15:54;;;;;;;17.05;11.57;;;;;;;;;;5034542;28;20075;-63
2022/03/19 00:18:20;;;;;;;15.88;10.43;;;;;;;;;;5034255;28;20022;-62
2022/03/19 00:20:47;;;;;;;15.00;10.60;;;;;;;;;;5034283;28;20040;-61
2022/03/19 00:23:14;;;;;;;15.40;10.38;;;;;;;;;;5034277;28;20017;-61
2022/03/19 00:25:40;;;;;;;18.75;11.55;;;;;;;;;;5034460;28;20026;-62
2022/03/19 00:28:07;;;;;;;15.10;10.10;;;;;;;;;;5034698;28;20026;-61
2022/03/19 00:30:34;;;;;;;15.68;11.02;;;;;;;;;;5034230;28;20029;-61
2022/03/19 00:33:00;;;;;;;17.90;11.32;;;;;;;;;;5034143;28;20021;-61
2022/03/19 00:35:26;;;;;;;17.25;11.07;;;;;;;;;;5034264;28;20451;-61
2022/03/19 00:37:53;;;;;;;16.45;11.23;;;;;;;;;;5051030;28;20029;-62
2022/03/19 00:40:24;;;;;;;18.08;11.63;;;;;;;;;;5053237;28;20062;-61
2022/03/19 00:42:51;;;;;;;17.58;11.32;;;;;;;;;;5033831;28;20405;-61
2022/03/19 00:45:17;;;;;;;16.05;11.02;;;;;;;;;;5040588;28;20036;-61
2022/03/19 00:47:43;;;;;;;16.65;10.32;;;;;;;;;;5053650;28;20140;-61
2022/03/19 00:50:09;;;;;;;19.20;11.75;;;;;;;;;;5053319;28;20017;-62
2022/03/19 00:52:36;;;;;;;16.90;11.15;;;;;;;;;;5052020;28;20025;-60
2022/03/19 00:55:02;;;;;;;16.00;11.07;;;;;;;;;;5052423;28;20029;-61
2022/03/19 00:57:28;;;;;;;19.92;11.85;;;;;;;;;;5053399;28;20113;-63
2022/03/19 00:59:55;;;;;;;17.02;11.52;;;;;;;;;;5053651;28;20045;-61
2022/03/19 01:02:21;;;;;;;16.65;12.07;;;;;;;;;;5039892;28;20017;-62
2022/03/19 01:04:47;;;;;;;20.25;11.23;;;;;;;;;;5047994;28;20828;-62
2022/03/19 01:07:13;;;;;;;19.67;12.30;;;;;;;;;;5051094;28;20072;-64
2022/03/19 01:09:39;;;;;;;18.58;11.23;;;;;;;;;;5033600;28;20603;-60
2022/03/19 01:12:06;;;;;;;17.08;11.63;;;;;;;;;;5033597;28;20550;-60
2022/03/19 01:14:32;;;;;;;18.70;9.52;;;;;;;;;;5033289;28;20444;-62
2022/03/19 01:16:58;;;;;;;15.70;10.55;;;;;;;;;;5033756;28;20052;-62
2022/03/19 01:19:52;;;;;;;20.05;10.95;;;;;;;;;;5034862;28;20160;-62
2022/03/19 01:22:10;;;;;;;18.13;10.90;;;;;;;;;;5053686;28;20385;-63
2022/03/19 01:24:36;;;;;;;21.67;11.50;;;;;;;;;;5053535;28;20091;-62
2022/03/19 01:27:02;;;;;;;20.23;11.48;;;;;;;;;;5053068;28;20411;-62
2022/03/19 01:29:28;;;;;;;17.73;10.50;;;;;;;;;;5052953;28;20040;-61
2022/03/19 01:31:54;;;;;;;15.80;11.20;;;;;;;;;;5053068;28;20025;-61
2022/03/19 01:34:20;;;;;;;21.52;11.40;;;;;;;;;;5047618;28;20029;-62
2022/03/19 01:36:46;;;;;;;18.92;11.15;;;;;;;;;;5033418;28;20049;-62
2022/03/19 01:39:12;;;;;;;15.70;10.90;;;;;;;;;;5032856;28;20034;-62
2022/03/19 01:41:41;;;;;;;18.13;10.55;;;;;;;;;;5032903;28;20025;-62
2022/03/19 01:44:07;;;;;;;16.52;10.70;;;;;;;;;;5042852;28;20285;-62
2022/03/19 01:46:52;;;;;;;16.67;11.02;;;;;;;;;;5052707;28;20017;-62
2022/03/19 01:49:18;;;;;;;16.65;12.10;;;;;;;;;;5052955;28;20017;-62
2022/03/19 01:51:44;;;;;;;20.33;11.82;;;;;;;;;;5053055;28;20028;-62
2022/03/19 01:54:11;;;;;;;16.70;10.85;;;;;;;;;;5052583;28;20017;-62
2022/03/19 01:56:38;;;;;;;18.38;11.40;;;;;;;;;;5052727;28;20217;-63
2022/03/19 01:59:04;;;;;;;16.23;11.13;;;;;;;;;;5052650;28;20530;-62
2022/03/19 02:01:30;;;;;;;17.75;11.43;;;;;;;;;;5052547;28;20059;-62
2022/03/19 02:03:57;;;;;;;18.17;11.55;;;;;;;;;;5052830;28;20032;-62
2022/03/19 02:06:25;;;;;;;16.55;11.38;;;;;;;;;;5052570;28;20022;-61
2022/03/19 02:08:51;;;;;;;17.42;12.27;;;;;;;;;;5040453;28;20060;-61
2022/03/19 02:11:18;;;;;;;18.05;10.23;;;;;;;;;;5032746;28;20104;-61
2022/03/19 02:13:44;;;;;;;18.65;11.15;;;;;;;;;;5032420;28;20503;-61
2022/03/19 02:16:10;;;;;;;16.65;10.75;;;;;;;;;;5032618;28;20037;-62
2022/03/19 02:18:36;;;;;;;17.00;11.90;;;;;;;;;;5032321;28;20033;-62
2022/03/19 02:21:02;;;;;;;19.27;11.15;;;;;;;;;;5032388;28;20057;-62
2022/03/19 02:26:13;;;;;;;15.52;10.98;;;;;;;;;;5032301;28;20508;-62
2022/03/19 02:28:39;;;;;;;16.15;11.25;;;;;;;;;;5032366;28;20021;-62
2022/03/19 02:31:05;;;;;;;16.73;11.55;;;;;;;;;;5032337;28;20400;-61
2022/03/19 02:33:31;;;;;;;14.18;10.25;;;;;;;;;;5032065;28;20063;-61
2022/03/19 02:35:57;;;;;;;17.52;11.40;;;;;;;;;;5032221;28;20026;-61
2022/03/19 02:38:23;;;;;;;15.95;11.07;;;;;;;;;;5032053;28;20073;-61
2022/03/19 02:40:50;;;;;;;17.38;9.73;;;;;;;;;;5030864;28;20599;-61
2022/03/19 02:43:16;;;;;;;17.92;10.88;;;;;;;;;;5032007;28;20591;-61
2022/03/19 02:45:46;;;;;;;15.00;10.48;;;;;;;;;;5031883;28;20657;-61
2022/03/19 02:48:12;;;;;;;15.75;10.93;;;;;;;;;;5031824;28;20025;-61
2022/03/19 02:50:38;;;;;;;15.40;10.85;;;;;;;;;;5031935;28;20029;-62
2022/03/19 02:53:05;;;;;;;14.77;10.93;;;;;;;;;;5031812;28;20044;-61
2022/03/19 02:55:32;;;;;;;17.13;10.73;;;;;;;;;;5031958;28;20159;-61
2022/03/19 02:57:59;;;;;;;15.65;11.15;;;;;;;;;;5031694;28;20025;-61
2022/03/19 03:00:25;;;;;;;17.40;11.98;;;;;;;;;;5031576;28;20057;-62
2022/03/19 03:02:51;;;;;;;16.55;11.73;;;;;;;;;;5031870;28;20044;-61
2022/03/19 03:05:17;;;;;;;16.13;11.55;;;;;;;;;;5031762;28;20030;-61
2022/03/19 03:07:43;;;;;;;17.42;12.18;;;;;;;;;;5031761;28;20032;-61
2022/03/19 03:10:09;;;;;;;15.98;11.40;;;;;;;;;;5031999;28;20432;-62
2022/03/19 03:12:36;;;;;;;16.75;11.52;;;;;;;;;;5031683;28;20187;-61
2022/03/19 03:15:02;;;;;;;16.27;11.45;;;;;;;;;;5031585;28;20022;-61
2022/03/19 03:17:29;;;;;;;14.93;10.15;;;;;;;;;;5031192;28;20021;-61
2022/03/19 03:19:55;;;;;;;16.90;10.65;;;;;;;;;;5031560;28;20040;-61
2022/03/19 03:22:21;;;;;;;17.27;11.05;;;;;;;;;;5031496;28;20104;-62
2022/03/19 03:24:47;;;;;;;15.77;10.98;;;;;;;;;;5031288;28;20053;-62
2022/03/19 03:27:13;;;;;;;15.80;11.00;;;;;;;;;;5031253;28;20435;-63
2022/03/19 03:29:39;;;;;;;14.60;9.77;;;;;;;;;;5031364;28;20024;-61
2022/03/19 03:32:05;;;;;;;15.45;10.07;;;;;;;;;;5031316;28;20044;-61
2022/03/19 03:34:31;;;;;;;15.52;10.88;;;;;;;;;;5031337;28;20029;-61
2022/03/19 03:36:57;;;;;;;16.35;10.73;;;;;;;;;;5031065;28;20469;-62
2022/03/19 03:39:23;;;;;;;17.23;11.68;;;;;;;;;;5030970;28;20038;-61
2022/03/19 03:41:49;;;;;;;16.27;10.88;;;;;;;;;;5031069;28;20603;-62
2022/03/19 03:44:15;;;;;;;17.35;11.40;;;;;;;;;;5031707;28;20029;-62
2022/03/19 03:46:41;;;;;;;15.45;10.75;;;;;;;;;;5031477;28;20074;-61
2022/03/19 03:49:08;;;;;;;15.30;10.00;;;;;;;;;;5031808;28;20155;-62
2022/03/19 03:51:34;;;;;;;17.38;9.23;;;;;;;;;;5031708;28;20029;-62
2022/03/19 03:54:00;;;;;;;16.33;11.32;;;;;;;;;;5031233;28;20026;-63
2022/03/19 03:56:26;;;;;;;13.77;10.00;;;;;;;;;;5031013;28;20032;-62
2022/03/19 03:58:53;;;;;;;13.68;10.05;;;;;;;;;;5030670;28;20061;-63
2022/03/19 04:01:19;;;;;;;15.35;9.68;;;;;;;;;;5030618;28;20097;-63
2022/03/19 04:03:45;;;;;;;15.63;10.48;;;;;;;;;;5030888;28;20087;-62
2022/03/19 04:06:11;;;;;;;19.50;11.35;;;;;;;;;;5030907;28;20026;-63
2022/03/19 04:08:37;;;;;;;15.30;10.98;;;;;;;;;;5031079;28;20022;-61
2022/03/19 04:11:04;;;;;;;14.90;10.40;;;;;;;;;;5031165;28;20033;-62
2022/03/19 04:13:30;;;;;;;16.48;10.65;;;;;;;;;;5030812;28;20682;-62
2022/03/19 04:15:56;;;;;;;14.68;10.00;;;;;;;;;;5030724;28;20037;-61
2022/03/19 04:18:22;;;;;;;15.77;10.32;;;;;;;;;;5030630;28;20026;-62
2022/03/19 04:20:48;;;;;;;15.60;10.40;;;;;;;;;;5030998;28;20033;-61
2022/03/19 04:23:14;;;;;;;14.07;9.45;;;;;;;;;;5030889;28;20021;-61
2022/03/19 04:25:40;;;;;;;15.02;9.93;;;;;;;;;;5030867;28;20029;-62
2022/03/19 04:28:06;;;;;;;14.05;10.32;;;;;;;;;;5030578;28;20026;-61
2022/03/19 04:30:32;;;;;;;14.80;10.85;;;;;;;;;;5032302;28;20030;-63
2022/03/19 04:32:59;;;;;;;14.80;10.27;;;;;;;;;;5034391;28;20156;-62
2022/03/19 04:38:12;;;;;;;15.38;10.02;;;;;;;;;;5034472;28;20040;-63
2022/03/19 04:40:39;;;;;;;14.18;9.45;;;;;;;;;;5034308;28;20052;-62
2022/03/19 04:43:05;;;;;;;13.73;9.52;;;;;;;;;;5049458;28;20033;-62
2022/03/19 04:45:31;;;;;;;13.57;9.32;;;;;;;;;;5034385;28;20079;-62
2022/03/19 04:47:57;;;;;;;14.15;9.32;;;;;;;;;;5034037;28;20160;-63
2022/03/19 04:50:24;;;;;;;12.85;9.40;;;;;;;;;;5049573;28;20021;-62
2022/03/19 04:52:50;;;;;;;15.68;10.77;;;;;;;;;;5034135;28;20025;-62
2022/03/19 04:55:17;;;;;;;15.88;10.63;;;;;;;;;;5032758;28;20392;-62
2022/03/19 04:57:43;;;;;;;14.30;10.02;;;;;;;;;;5034154;28;20380;-61
2022/03/19 05:00:11;;;;;;;15.75;10.43;;;;;;;;;;5033890;28;20053;-61
2022/03/19 05:02:37;;;;;;;15.48;8.98;;;;;;;;;;5033951;28;20112;-61
2022/03/19 05:05:03;;;;;;;15.40;11.10;;;;;;;;;;5034044;28;20060;-61
2022/03/19 05:07:35;;;;;;;15.02;10.25;;;;;;;;;;5033875;28;20021;-61
2022/03/19 05:12:46;;;;;;;14.55;10.63;;;;;;;;;;5033880;28;20041;-61
2022/03/19 05:15:16;;;;;;;15.50;10.77;;;;;;;;;;5033944;28;20033;-61
2022/03/19 05:17:43;;;;;;;15.80;9.70;;;;;;;;;;5033864;28;20052;-62
2022/03/19 05:20:10;;;;;;;18.13;10.75;;;;;;;;;;5033278;28;20029;-61
2022/03/19 05:22:36;;;;;;;14.98;10.10;;;;;;;;;;5033450;28;20350;-62
2022/03/19 05:25:03;;;;;;;13.45;9.73;;;;;;;;;;5033560;28;20049;-63
2022/03/19 05:27:29;;;;;;;13.75;10.40;;;;;;;;;;5033422;28;20021;-61
2022/03/19 05:29:55;;;;;;;15.05;11.00;;;;;;;;;;5032057;28;20116;-61
2022/03/19 05:32:22;;;;;;;16.25;10.88;;;;;;;;;;5033384;28;20124;-61
2022/03/19 05:34:49;;;;;;;14.35;10.90;;;;;;;;;;5032770;28;20400;-62
2022/03/19 05:37:15;;;;;;;15.25;10.02;;;;;;;;;;5033375;28;20051;-62
2022/03/19 05:39:42;;;;;;;14.80;10.02;;;;;;;;;;5048619;28;20033;-62
2022/03/19 05:42:08;;;;;;;15.70;10.38;;;;;;;;;;5052849;28;20025;-61
2022/03/19 05:44:35;;;;;;;15.85;10.55;;;;;;;;;;5042329;28;20032;-62
2022/03/19 05:47:01;;;;;;;14.07;10.05;;;;;;;;;;5033080;28;20021;-62
2022/03/19 05:49:27;;;;;;;13.95;10.35;;;;;;;;;;5033004;28;20033;-62
2022/03/19 05:51:54;;;;;;;15.82;11.00;;;;;;;;;;5033090;28;20017;-63
2022/03/19 05:54:20;;;;;;;15.02;10.82;;;;;;;;;;5048244;28;20033;-64
2022/03/19 05:56:46;;;;;;;15.35;10.32;;;;;;;;;;5033150;28;20021;-62
2022/03/19 05:59:12;;;;;;;14.02;10.00;;;;;;;;;;5032947;28;20029;-61
2022/03/19 06:01:41;;;;;;;13.95;9.57;;;;;;;;;;5033050;28;20022;-62
2022/03/19 06:04:07;;;;;;;15.95;10.23;;;;;;;;;;5032835;28;20061;-63
2022/03/19 06:06:34;;;;;;;15.23;11.23;;;;;;;;;;5032596;28;20021;-61
2022/03/19 06:09:00;;;;;;;16.10;9.30;;;;;;;;;;5032988;28;20028;-62
2022/03/19 06:11:26;;;;;;;16.52;9.90;;;;;;;;;;5032901;28;20022;-62
2022/03/19 06:13:52;;;;;;;14.50;9.05;;;;;;;;;;5032756;28;20037;-62
2022/03/19 06:16:18;;;;;;;18.63;12.18;;;;;;;;;;5032805;28;20026;-63
2022/03/19 06:18:47;;;;;;;17.15;12.35;;;;;;;;;;5032458;28;20025;-62
2022/03/19 06:21:14;;;;;;;18.85;12.75;;;;;;;;;;5032733;28;20028;-62
2022/03/19 06:23:40;;;;;;;17.08;12.25;;;;;;;;;;5032613;28;20048;-62
2022/03/19 06:26:06;;;;;;;18.30;12.57;;;;;;;;;;5032693;28;20036;-63
2022/03/19 06:28:32;;;;;;;18.70;13.13;;;;;;;;;;5032536;28;20044;-62
2022/03/19 06:30:58;;;;;;;16.52;11.32;;;;;;;;;;5032326;28;20009;-62
2022/03/19 06:33:24;;;;;;;18.55;12.25;;;;;;;;;;5032311;28;20029;-62
2022/03/19 06:38:34;;;;;;;19.70;12.65;;;;;;;;;;5033175;28;20164;-62
2022/03/19 06:41:01;;;;;;;19.83;13.13;;;;;;;;;;5032749;28;20134;-61
2022/03/19 06:43:27;;;;;;;19.23;13.60;;;;;;;;;;5032185;28;20018;-63
2022/03/19 06:46:00;;;;;;;23.15;14.02;;;;;;;;;;5031784;28;20029;-63
2022/03/19 06:48:26;;;;;;;20.90;12.32;;;;;;;;;;5032083;28;20025;-61
2022/03/19 06:50:54;;;;;;;20.50;12.75;;;;;;;;;;5032168;28;20076;-61
2022/03/19 06:53:20;;;;;;;18.17;12.80;;;;;;;;;;5031233;28;20112;-61
2022/03/19 06:55:46;;;;;;;19.58;13.00;;;;;;;;;;5031797;28;20028;-61
2022/03/19 06:58:12;;;;;;;20.23;12.77;;;;;;;;;;5047231;28;20527;-62
2022/03/19 07:00:39;;;;;;;21.02;14.05;;;;;;;;;;5031527;28;20059;-61
2022/03/19 07:03:06;;;;;;;18.50;11.77;;;;;;;;;;5031669;28;20021;-62
2022/03/19 07:05:32;;;;;;;25.38;12.23;;;;;;;;;;5031663;28;20417;-63
2022/03/19 07:07:59;;;;;;;18.52;12.25;;;;;;;;;;5031621;28;20090;-63
2022/03/19 07:10:25;;;;;;;19.90;12.00;;;;;;;;;;5031333;28;20159;-62
2022/03/19 07:12:56;;;;;;;18.15;12.38;;;;;;;;;;5031227;28;20032;-63
2022/03/19 07:15:29;;;;;;;19.25;11.70;;;;;;;;;;5031501;28;20032;-62
2022/03/19 07:17:56;;;;;;;21.27;14.85;;;;;;;;;;5031363;28;20025;-62
2022/03/19 07:20:22;;;;;;;21.10;12.50;;;;;;;;;;5031345;28;20119;-63
2022/03/19 07:22:49;;;;;;;18.50;12.68;;;;;;;;;;5031190;28;20021;-62
2022/03/19 07:25:15;;;;;;;18.27;11.90;;;;;;;;;;5031478;28;20420;-61
2022/03/19 07:27:41;;;;;;;18.08;12.50;;;;;;;;;;5031396;28;20022;-61
2022/03/19 07:30:07;;;;;;;18.70;11.57;;;;;;;;;;5031441;28;20115;-61
2022/03/19 07:32:33;;;;;;;16.80;11.38;;;;;;;;;;5031298;28;20449;-60
2022/03/19 07:35:00;;;;;;;17.30;11.43;;;;;;;;;;5031335;28;20029;-62
2022/03/19 07:37:26;;;;;;;19.40;12.07;;;;;;;;;;5031179;28;20026;-61
2022/03/19 07:39:52;;;;;;;23.33;13.70;;;;;;;;;;5030533;28;20429;-60
2022/03/19 07:42:18;;;;;;;19.77;12.02;;;;;;;;;;5031088;28;20092;-61
2022/03/19 07:44:44;;;;;;;17.75;11.45;;;;;;;;;;5031079;28;20080;-62
2022/03/19 07:47:10;;;;;;;19.67;11.85;;;;;;;;;;5031015;28;20021;-61
2022/03/19 07:49:36;;;;;;;20.00;12.55;;;;;;;;;;5031227;28;20048;-61
2022/03/19 07:52:05;;;;;;;29.05;13.85;;;;;;;;;;5031047;28;20021;-61
2022/03/19 07:54:32;;;;;;;21.85;13.90;;;;;;;;;;5030834;28;20057;-61
2022/03/19 07:56:58;;;;;;;19.10;11.55;;;;;;;;;;5030943;28;20060;-61
2022/03/19 07:59:25;;;;;;;25.80;15.30;;;;;;;;;;5029324;28;20038;-61
2022/03/19 08:01:51;;;;;;;19.38;12.95;;;;;;;;;;5030880;28;20479;-61
2022/03/19 08:04:17;;;;;;;19.08;11.75;;;;;;;;;;5032260;28;20100;-61
2022/03/19 08:06:43;;;;;;;23.42;15.27;;;;;;;;;;5034876;28;20057;-61
2022/03/19 08:09:10;;;;;;;23.88;14.82;;;;;;;;;;5034941;28;20025;-62
2022/03/19 08:11:36;;;;;;;22.40;14.38;;;;;;;;;;5033624;28;20021;-61
2022/03/19 08:14:03;;;;;;;24.13;15.20;;;;;;;;;;5034878;28;20036;-61
2022/03/19 08:16:30;;;;;;;19.98;13.35;;;;;;;;;;5034812;28;20018;-61
2022/03/19 08:18:56;;;;;;;24.60;14.05;;;;;;;;;;5034877;28;20033;-61
2022/03/19 08:21:22;;;;;;;29.90;15.95;;;;;;;;;;5034731;28;20034;-61
2022/03/19 08:23:48;;;;;;;25.52;14.32;;;;;;;;;;5034687;28;20682;-61
2022/03/19 08:26:14;;;;;;;30.80;15.98;;;;;;;;;;5037035;28;20116;-61
2022/03/19 08:28:41;;;;;;;25.63;15.80;;;;;;;;;;5039909;28;20020;-62
2022/03/19 08:31:07;;;;;;;27.00;15.70;;;;;;;;;;5051421;28;20141;-63
2022/03/19 08:33:33;;;;;;;26.75;14.82;;;;;;;;;;5037438;28;20025;-62
2022/03/19 08:35:59;;;;;;;22.40;13.48;;;;;;;;;;5053831;28;20021;-61
2022/03/19 08:41:10;;;;;;;23.58;13.18;;;;;;;;;;5053720;28;20593;-61
2022/03/19 08:43:36;;;;;;;19.50;12.88;;;;;;;;;;5047786;28;20021;-61
2022/03/19 08:46:02;;;;;;;22.17;13.90;;;;;;;;;;5051401;28;20483;-62
2022/03/19 08:48:28;;;;;;;20.95;13.45;;;;;;;;;;5053598;28;20094;-60
2022/03/19 08:51:39;;;;;;;18.88;14.30;;;;;;;;;;5053740;28;20032;-62
2022/03/19 08:53:40;;;;;;;21.00;13.35;;;;;;;;;;5053785;28;20033;-61
2022/03/19 08:56:06;;;;;;;20.50;13.40;;;;;;;;;;5037916;28;20026;-60
2022/03/19 08:58:32;;;;;;;17.15;11.45;;;;;;;;;;5049480;28;20022;-61
2022/03/19 09:00:58;;;;;;;20.67;12.85;;;;;;;;;;5039867;28;20132;-62
2022/03/19 09:03:26;;;;;;;19.50;11.18;;;;;;;;;;5042776;28;20029;-62
2022/03/19 09:05:52;;;;;;;19.05;11.57;;;;;;;;;;5045915;28;20056;-62
2022/03/19 09:08:19;;;;;;;16.88;11.68;;;;;;;;;;5036651;28;20053;-62
2022/03/19 09:10:45;;;;;;;25.92;12.77;;;;;;;;;;5048528;28;20036;-62
2022/03/19 09:13:11;;;;;;;20.63;12.65;;;;;;;;;;5042140;28;20092;-61
2022/03/19 09:15:38;;;;;;;19.38;11.57;;;;;;;;;;5040603;28;20030;-60
2022/03/19 09:18:05;;;;;;;19.10;10.88;;;;;;;;;;5047668;28;20075;-63
2022/03/19 09:20:32;;;;;;;16.67;9.95;;;;;;;;;;5052885;28;20033;-61
2022/03/19 09:22:58;;;;;;;14.75;9.82;;;;;;;;;;5053548;28;20028;-61
2022/03/19 09:25:24;;;;;;;15.60;9.98;;;;;;;;;;5053585;28;20551;-62
2022/03/19 09:27:50;;;;;;;16.60;11.13;;;;;;;;;;5053046;28;20087;-61
2022/03/19 09:30:16;;;;;;;16.30;10.23;;;;;;;;;;5053128;28;20048;-61
2022/03/19 09:32:42;;;;;;;18.73;10.75;;;;;;;;;;5052970;28;20021;-61
2022/03/19 09:35:08;;;;;;;16.08;9.85;;;;;;;;;;5053172;28;20075;-61
2022/03/19 09:37:35;;;;;;;15.32;10.38;;;;;;;;;;5053137;28;20073;-61
2022/03/19 09:40:01;;;;;;;15.68;10.02;;;;;;;;;;5052734;28;20060;-61
2022/03/19 09:42:34;;;;;;;17.13;10.98;;;;;;;;;;5046097;28;20021;-61
2022/03/19 09:45:00;;;;;;;16.80;10.23;;;;;;;;;;5034757;28;20017;-61
2022/03/19 09:47:26;;;;;;;13.95;9.20;;;;;;;;;;5052231;28;20024;-63
2022/03/19 09:49:53;;;;;;;13.82;9.57;;;;;;;;;;5042548;28;20022;-61
2022/03/19 09:52:20;;;;;;;15.73;9.10;;;;;;;;;;5045835;28;20066;-61
2022/03/19 09:54:46;;;;;;;14.48;8.50;;;;;;;;;;5035757;28;20013;-62
2022/03/19 09:57:13;;;;;;;13.95;8.77;;;;;;;;;;5050347;28;20050;-62
2022/03/19 09:59:39;;;;;;;15.15;9.27;;;;;;;;;;5051802;28;20060;-61
2022/03/19 10:02:06;;;;;;;17.10;9.82;;;;;;;;;;5051645;28;20033;-62
2022/03/19 10:04:32;;;;;;;15.05;9.10;;;;;;;;;;5052438;28;20021;-62
2022/03/19 10:09:45;;;;;;;14.80;8.98;;;;;;;;;;5051995;28;20491;-60
2022/03/19 10:12:12;;;;;;;20.02;8.20;;;;;;;;;;5052599;28;20028;-63
2022/03/19 10:14:38;;;;;;;14.82;8.80;;;;;;;;;;5052527;28;20017;-61
2022/03/19 10:17:04;;;;;;;17.20;8.95;;;;;;;;;;5052851;28;20043;-62
2022/03/19 10:19:30;;;;;;;15.95;8.52;;;;;;;;;;5052946;28;20079;-62
2022/03/19 10:22:07;;;;;;;12.02;8.35;;;;;;;;;;5044293;28;20032;-63
2022/03/19 10:24:36;;;;;;;15.43;7.93;;;;;;;;;;5032534;28;20018;-62
2022/03/19 10:27:02;;;;;;;12.75;7.75;;;;;;;;;;5032146;28;20022;-61
2022/03/19 10:29:30;;;;;;;20.35;8.45;;;;;;;;;;5032301;28;20092;-63
2022/03/19 10:32:00;;;;;;;13.00;8.02;;;;;;;;;;5032481;28;20017;-63
2022/03/19 10:34:26;;;;;;;12.30;7.15;;;;;;;;;;5032916;28;20162;-61
2022/03/19 10:36:52;;;;;;;13.25;8.23;;;;;;;;;;5032125;28;20544;-62
2022/03/19 10:39:21;;;;;;;14.65;7.10;;;;;;;;;;5032555;28;20493;-61
2022/03/19 10:41:51;;;;;;;12.32;7.40;;;;;;;;;;5032676;28;20021;-61
2022/03/19 10:44:19;;;;;;;11.80;7.25;;;;;;;;;;5032625;28;20064;-61
2022/03/19 10:46:49;;;;;;;11.50;7.10;;;;;;;;;;5043944;28;20059;-63
2022/03/19 10:49:16;;;;;;;12.40;7.35;;;;;;;;;;5052541;28;20078;-62
2022/03/19 10:51:46;;;;;;;10.52;7.15;;;;;;;;;;5052448;28;20488;-61
2022/03/19 10:54:12;;;;;;;12.25;7.60;;;;;;;;;;5052399;28;20055;-61
2022/03/19 10:56:39;;;;;;;12.30;7.55;;;;;;;;;;5052263;28;20099;-61
2022/03/19 10:59:05;;;;;;;12.57;7.38;;;;;;;;;;5067629;28;20029;-62
2022/03/19 11:01:32;;;;;;;10.40;6.88;;;;;;;;;;5052293;28;20063;-61
2022/03/19 11:04:00;;;;;;;13.05;7.78;;;;;;;;;;5052339;28;20021;-61
2022/03/19 11:06:29;;;;;;;10.65;7.00;;;;;;;;;;5052235;28;20033;-61
2022/03/19 11:08:55;;;;;;;13.50;7.10;;;;;;;;;;5052184;28;20039;-63
2022/03/19 11:11:34;;;;;;;12.10;7.50;;;;;;;;;;5052275;28;20044;-61
2022/03/19 11:14:02;;;;;;;12.38;6.70;;;;;;;;;;5052039;28;20075;-62
2022/03/19 11:16:31;;;;;;;9.60;6.05;;;;;;;;;;5051900;28;20449;-63
2022/03/19 11:18:57;;;;;;;9.90;6.70;;;;;;;;;;5052101;28;20565;-63
2022/03/19 11:21:25;;;;;;;11.10;7.05;;;;;;;;;;5051976;28;20017;-61
2022/03/19 11:23:54;;;;;;;11.10;6.35;;;;;;;;;;5051757;28;20053;-61
2022/03/19 11:26:23;;;;;;;12.43;7.15;;;;;;;;;;5067280;28;20024;-60
2022/03/19 11:28:49;;;;;;;9.32;6.50;;;;;;;;;;5051924;28;20084;-62
2022/03/19 11:31:22;;;;;;;12.35;6.90;;;;;;;;;;5051912;28;20021;-63
2022/03/19 11:33:48;;;;;;;;;;;;;;;;;;5052250;28;20021;-64
2022/03/19 11:36:14;;;;;;;12.80;7.32;;;;;;;;;;5051786;28;19912;-62
2022/03/19 11:38:53;;;;;;;11.48;7.40;;;;;;;;;;5051449;28;20569;-60
2022/03/19 11:41:22;;;;;;;13.00;7.18;;;;;;;;;;5051760;28;20029;-61
2022/03/19 11:43:48;;;;;;;10.10;6.25;;;;;;;;;;5051741;28;20021;-62
2022/03/19 11:46:15;;;;;;;11.77;6.80;;;;;;;;;;5050303;28;20052;-63
2022/03/19 11:48:45;;;;;;;10.02;6.30;;;;;;;;;;5050769;28;20025;-63
2022/03/19 11:51:32;;;;;;;9.73;6.13;;;;;;;;;;5050220;28;20014;-62
2022/03/19 11:54:01;;;;;;;9.95;6.25;;;;;;;;;;5051332;28;20025;-62
2022/03/19 11:56:51;;;;;;;10.93;6.53;;;;;;;;;;5051843;28;20352;-62
2022/03/19 11:59:18;;;;;;;9.15;6.05;;;;;;;;;;5047902;28;20041;-63
2022/03/19 12:01:54;;;;;;;11.10;6.65;;;;;;;;;;5051783;28;20543;-60
2022/03/19 12:04:24;;;;;;;10.07;6.55;;;;;;;;;;5067065;28;20052;-62
2022/03/19 12:06:54;;;;;;;9.13;6.03;;;;;;;;;;5051919;28;20017;-62
2022/03/19 12:09:21;;;;;;;11.60;7.05;;;;;;;;;;5051333;28;20029;-60
2022/03/19 12:12:13;;;;;;;9.68;6.03;;;;;;;;;;5051297;28;20372;-60
2022/03/19 12:14:40;;;;;;;9.52;6.68;;;;;;;;;;5042822;28;20198;-60
2022/03/19 12:17:15;;;;;;;11.57;7.50;;;;;;;;;;5051266;28;20147;-62
2022/03/19 12:20:01;;;;;;;10.13;6.18;;;;;;;;;;5051738;28;20033;-61
2022/03/19 12:22:38;;;;;;;9.20;6.00;;;;;;;;;;5051421;28;20054;-61
2022/03/19 12:25:10;;;;;;;12.43;7.15;;;;;;;;;;5051298;28;20028;-60
2022/03/19 12:27:36;;;;;;;8.40;5.50;;;;;;;;;;5051598;28;20015;-61
2022/03/19 12:30:03;;;;;;;11.27;6.50;;;;;;;;;;5051285;28;20025;-60
2022/03/19 12:32:29;;;;;;;10.35;6.72;;;;;;;;;;5051210;28;20033;-61
2022/03/19 12:34:58;;;;;;;9.80;6.43;;;;;;;;;;5051212;28;20108;-61
2022/03/19 12:37:25;;;;;;;10.13;5.20;;;;;;;;;;5051220;28;20035;-63
2022/03/19 12:39:58;;;;;;;9.73;5.95;;;;;;;;;;5050860;28;20037;-61
2022/03/19 12:42:31;;;;;;;9.80;5.78;;;;;;;;;;5051056;28;20534;-60
2022/03/19 12:44:59;;;;;;;9.68;5.72;;;;;;;;;;5051050;28;20025;-60
2022/03/19 12:47:26;;;;;;;9.18;5.85;;;;;;;;;;5050914;28;20071;-63
2022/03/19 12:49:55;;;;;;;10.40;6.30;;;;;;;;;;5051021;28;20100;-61
2022/03/19 12:52:22;;;;;;;12.80;8.27;;;;;;;;;;5053808;28;20499;-60
2022/03/19 12:54:54;;;;;;;9.75;6.47;;;;;;;;;;5070198;28;20027;-60
2022/03/19 12:57:29;;;;;;;9.98;6.70;;;;;;;;;;5054713;28;20025;-60
2022/03/19 12:59:56;;;;;;;9.30;6.15;;;;;;;;;;5054517;28;20051;-60
2022/03/19 13:02:23;;;;;;;8.85;5.50;;;;;;;;;;5054613;28;20021;-60
2022/03/19 13:04:49;;;;;;;8.75;5.53;;;;;;;;;;5054530;28;20021;-60
2022/03/19 13:07:22;;;;;;;11.50;6.20;;;;;;;;;;5054764;28;20376;-60
2022/03/19 13:09:48;;;;;;;8.82;5.82;;;;;;;;;;5054495;28;20467;-60
2022/03/19 13:12:18;;;;;;;10.25;6.80;;;;;;;;;;5054627;28;20064;-63
2022/03/19 13:14:49;;;;;;;6.97;4.88;;;;;;;;;;5054447;28;20029;-60
2022/03/19 13:17:15;;;;;;;12.35;6.18;;;;;;;;;;5050953;28;20112;-60
2022/03/19 13:19:41;;;;;;;12.48;6.07;;;;;;;;;;5054131;28;20033;-60
2022/03/19 13:22:10;;;;;;;25.25;8.98;;;;;;;;;;5053896;28;20378;-73
2022/03/19 13:24:37;;;;;;;17.83;8.98;;;;;;;;;;5049241;28;20029;-63
2022/03/19 13:27:04;;;;;;;17.65;9.90;;;;;;;;;;5034211;28;20489;-64
2022/03/19 13:29:35;;;;;;;15.82;9.07;;;;;;;;;;5034058;28;20025;-62
2022/03/19 13:32:05;;;;;;;16.33;10.55;;;;;;;;;;5033986;28;20577;-61
2022/03/19 13:34:36;;;;;;;18.90;11.15;;;;;;;;;;5038710;28;20116;-64
2022/03/19 13:37:07;;;;;;;18.60;10.90;;;;;;;;;;5053655;28;20025;-65
2022/03/19 13:39:38;;;;;;;21.23;10.68;;;;;;;;;;5053242;28;20411;-63
2022/03/19 13:42:05;;;;;;;16.65;10.85;;;;;;;;;;5053607;28;20018;-64
2022/03/19 13:44:38;;;;;;;19.77;10.73;;;;;;;;;;5052853;28;20009;-63
2022/03/19 13:47:05;;;;;;;18.83;10.05;;;;;;;;;;5053311;28;20445;-63
2022/03/19 13:49:35;;;;;;;16.00;9.00;;;;;;;;;;5053519;28;20029;-63
2022/03/19 13:52:01;;;;;;;15.25;9.95;;;;;;;;;;5053243;28;20029;-62
2022/03/19 13:54:43;;;;;;;13.27;8.57;;;;;;;;;;5053390;28;20025;-63
2022/03/19 13:57:12;;;;;;;12.85;8.25;;;;;;;;;;5053317;28;20036;-62
2022/03/19 13:59:38;;;;;;;17.92;8.93;;;;;;;;;;5052767;28;20650;-62
2022/03/19 14:02:04;;;;;;;15.90;9.13;;;;;;;;;;5052838;28;20025;-63
2022/03/19 14:04:34;;;;;;;18.52;9.73;;;;;;;;;;5053057;28;20053;-64
2022/03/19 14:07:00;;;;;;;13.98;8.50;;;;;;;;;;5053004;28;20071;-63
2022/03/19 14:09:27;;;;;;;11.82;7.72;;;;;;;;;;5052852;28;20025;-62
2022/03/19 14:11:53;;;;;;;17.10;10.23;;;;;;;;;;5052709;28;20036;-62
2022/03/19 14:14:19;;;;;;;15.07;9.18;;;;;;;;;;5052687;28;20021;-62
2022/03/19 14:16:55;;;;;;;15.57;8.73;;;;;;;;;;5052956;28;20104;-61
2022/03/19 14:19:22;;;;;;;16.27;9.32;;;;;;;;;;5052717;28;20120;-62
2022/03/19 14:21:48;;;;;;;30.40;10.27;;;;;;;;;;5052787;28;20025;-62
2022/03/19 14:24:14;;;;;;;15.15;8.35;;;;;;;;;;5051104;28;20049;-64
2022/03/19 14:26:40;;;;;;;10.50;6.82;;;;;;;;;;5051993;28;20017;-63
2022/03/19 14:29:06;;;;;;;13.15;8.88;;;;;;;;;;5052142;28;20028;-63
2022/03/19 14:31:32;;;;;;;12.23;8.05;;;;;;;;;;5052420;28;20021;-61
2022/03/19 14:33:58;;;;;;;14.63;8.55;;;;;;;;;;5052699;28;20032;-62
2022/03/19 14:36:26;;;;;;;12.30;7.40;;;;;;;;;;5052356;28;20025;-63
2022/03/19 14:38:52;;;;;;;11.40;6.32;;;;;;;;;;5052230;28;20025;-62
2022/03/19 14:41:19;;;;;;;13.48;8.68;;;;;;;;;;5052135;28;20056;-63